sensor_id;sensor_type;location;lat;lon;timestamp;pressure;altitude;pressure_sealevel;temperature;humidity
42761;BME280;31672;47.638;19.026;2023-05-22T00:03:31;100063.16;;;15.72;75.06
42761;BME280;31672;47.638;19.026;2023-05-22T00:08:35;100071.53;;;15.56;76.04
42761;BME280;31672;47.638;19.026;2023-05-22T00:13:38;100078.97;;;15.53;76.51
42761;BME280;31672;47.638;19.026;2023-05-22T00:18:41;100084.09;;;15.48;75.49
42761;BME280;31672;47.638;19.026;2023-05-22T00:23:45;100081.41;;;15.42;76.22
42761;BME280;31672;47.638;19.026;2023-05-22T00:28:47;100080.75;;;15.33;77.13
42761;BME280;31672;47.638;19.026;2023-05-22T00:33:51;100075.81;;;15.23;78.40
42761;BME280;31672;47.638;19.026;2023-05-22T00:38:54;100078.88;;;15.20;79.00
42761;BME280;31672;47.638;19.026;2023-05-22T00:43:57;100072.03;;;15.11;79.31
42761;BME280;31672;47.638;19.026;2023-05-22T00:49:01;100068.72;;;15.09;79.33
42761;BME280;31672;47.638;19.026;2023-05-22T00:54:04;100071.59;;;15.01;79.68
42761;BME280;31672;47.638;19.026;2023-05-22T00:59:08;100072.19;;;14.96;80.53
42761;BME280;31672;47.638;19.026;2023-05-22T01:04:11;100066.56;;;14.85;81.15
42761;BME280;31672;47.638;19.026;2023-05-22T01:09:14;100075.81;;;14.76;81.80
42761;BME280;31672;47.638;19.026;2023-05-22T01:20:30;100071.06;;;14.78;82.91
42761;BME280;31672;47.638;19.026;2023-05-22T01:26:21;100073.94;;;14.76;82.82
42761;BME280;31672;47.638;19.026;2023-05-22T01:31:30;100062.81;;;14.72;82.77
42761;BME280;31672;47.638;19.026;2023-05-22T01:36:39;100057.88;;;14.69;82.98
42761;BME280;31672;47.638;19.026;2023-05-22T01:41:43;100055.38;;;14.68;83.03
42761;BME280;31672;47.638;19.026;2023-05-22T01:46:47;100049.75;;;14.56;83.26
42761;BME280;31672;47.638;19.026;2023-05-22T01:51:56;100053.25;;;14.57;83.81
42761;BME280;31672;47.638;19.026;2023-05-22T02:02:10;100061.66;;;14.47;83.62
42761;BME280;31672;47.638;19.026;2023-05-22T02:07:13;100054.59;;;14.39;84.51
42761;BME280;31672;47.638;19.026;2023-05-22T02:12:19;100055.53;;;14.32;85.07
42761;BME280;31672;47.638;19.026;2023-05-22T02:17:23;100047.06;;;14.22;85.07
42761;BME280;31672;47.638;19.026;2023-05-22T02:22:26;100042.63;;;14.07;85.29
42761;BME280;31672;47.638;19.026;2023-05-22T02:27:29;100053.47;;;13.99;85.88
42761;BME280;31672;47.638;19.026;2023-05-22T02:32:32;100046.13;;;13.80;86.08
42761;BME280;31672;47.638;19.026;2023-05-22T02:37:37;100043.19;;;13.75;86.57
42761;BME280;31672;47.638;19.026;2023-05-22T02:42:40;100041.25;;;13.62;87.38
42761;BME280;31672;47.638;19.026;2023-05-22T02:47:43;100046.31;;;13.57;87.86
42761;BME280;31672;47.638;19.026;2023-05-22T02:52:46;100041.28;;;13.47;88.03
42761;BME280;31672;47.638;19.026;2023-05-22T02:57:49;100046.19;;;13.44;88.65
42761;BME280;31672;47.638;19.026;2023-05-22T03:02:52;100041.97;;;13.34;88.79
42761;BME280;31672;47.638;19.026;2023-05-22T03:07:56;100051.63;;;13.35;89.29
42761;BME280;31672;47.638;19.026;2023-05-22T03:12:59;100046.50;;;13.34;89.36
42761;BME280;31672;47.638;19.026;2023-05-22T03:18:02;100049.72;;;13.29;89.52
42761;BME280;31672;47.638;19.026;2023-05-22T03:23:05;100045.78;;;13.25;89.79
42761;BME280;31672;47.638;19.026;2023-05-22T03:28:08;100045.34;;;13.22;89.93
42761;BME280;31672;47.638;19.026;2023-05-22T03:33:11;100043.69;;;13.21;90.27
42761;BME280;31672;47.638;19.026;2023-05-22T03:38:14;100044.31;;;13.23;90.45
42761;BME280;31672;47.638;19.026;2023-05-22T03:43:17;100043.97;;;13.26;90.89
42761;BME280;31672;47.638;19.026;2023-05-22T03:48:20;100045.59;;;13.27;91.30
42761;BME280;31672;47.638;19.026;2023-05-22T03:53:23;100030.03;;;13.30;91.45
42761;BME280;31672;47.638;19.026;2023-05-22T03:58:26;100028.34;;;13.44;91.69
42761;BME280;31672;47.638;19.026;2023-05-22T04:03:29;100043.00;;;13.55;92.16
42761;BME280;31672;47.638;19.026;2023-05-22T04:08:32;100034.38;;;13.74;92.77
42761;BME280;31672;47.638;19.026;2023-05-22T04:13:36;100032.22;;;13.91;92.97
42761;BME280;31672;47.638;19.026;2023-05-22T04:18:38;100035.88;;;14.11;93.15
42761;BME280;31672;47.638;19.026;2023-05-22T04:23:41;100042.19;;;14.32;92.75
42761;BME280;31672;47.638;19.026;2023-05-22T04:28:46;100038.44;;;14.54;92.07
42761;BME280;31672;47.638;19.026;2023-05-22T04:33:49;100036.09;;;14.79;91.81
42761;BME280;31672;47.638;19.026;2023-05-22T04:38:52;100033.31;;;15.01;91.51
42761;BME280;31672;47.638;19.026;2023-05-22T04:43:56;100031.94;;;15.18;90.67
42761;BME280;31672;47.638;19.026;2023-05-22T04:49:00;100020.00;;;15.34;89.40
42761;BME280;31672;47.638;19.026;2023-05-22T04:54:04;100012.41;;;15.50;88.41
42761;BME280;31672;47.638;19.026;2023-05-22T04:59:07;100005.84;;;15.60;88.13
42761;BME280;31672;47.638;19.026;2023-05-22T05:04:11;100014.94;;;15.78;88.50
42761;BME280;31672;47.638;19.026;2023-05-22T05:09:14;100016.56;;;15.99;89.27
42761;BME280;31672;47.638;19.026;2023-05-22T05:14:17;100016.13;;;16.22;89.80
42761;BME280;31672;47.638;19.026;2023-05-22T05:19:21;100017.72;;;16.50;90.25
42761;BME280;31672;47.638;19.026;2023-05-22T05:24:25;100004.47;;;16.75;88.12
42761;BME280;31672;47.638;19.026;2023-05-22T05:29:28;100017.53;;;17.09;85.36
42761;BME280;31672;47.638;19.026;2023-05-22T05:34:31;100023.13;;;17.39;83.07
42761;BME280;31672;47.638;19.026;2023-05-22T05:39:34;100038.28;;;17.59;76.78
42761;BME280;31672;47.638;19.026;2023-05-22T05:44:38;100040.91;;;17.72;74.09
42761;BME280;31672;47.638;19.026;2023-05-22T05:49:41;100042.72;;;17.78;71.16
42761;BME280;31672;47.638;19.026;2023-05-22T05:54:44;100048.25;;;17.83;69.84
42761;BME280;31672;47.638;19.026;2023-05-22T05:59:49;100038.97;;;17.79;68.96
42761;BME280;31672;47.638;19.026;2023-05-22T06:04:51;100048.69;;;17.80;69.48
42761;BME280;31672;47.638;19.026;2023-05-22T06:09:55;100051.19;;;17.82;69.56
42761;BME280;31672;47.638;19.026;2023-05-22T06:14:58;100042.44;;;17.86;69.86
42761;BME280;31672;47.638;19.026;2023-05-22T06:20:02;100057.25;;;17.96;69.71
42761;BME280;31672;47.638;19.026;2023-05-22T06:25:09;100054.75;;;18.01;68.74
42761;BME280;31672;47.638;19.026;2023-05-22T06:30:12;100059.41;;;18.12;69.27
42761;BME280;31672;47.638;19.026;2023-05-22T06:35:17;100056.50;;;18.13;67.67
42761;BME280;31672;47.638;19.026;2023-05-22T06:40:21;100059.00;;;18.08;68.38
42761;BME280;31672;47.638;19.026;2023-05-22T06:45:24;100059.84;;;18.09;69.12
42761;BME280;31672;47.638;19.026;2023-05-22T06:50:27;100051.69;;;18.15;69.58
42761;BME280;31672;47.638;19.026;2023-05-22T06:55:31;100057.13;;;18.34;67.35
42761;BME280;31672;47.638;19.026;2023-05-22T07:00:34;100053.53;;;18.58;65.40
42761;BME280;31672;47.638;19.026;2023-05-22T07:05:37;100047.28;;;18.83;63.17
42761;BME280;31672;47.638;19.026;2023-05-22T07:10:40;100039.25;;;19.13;63.04
42761;BME280;31672;47.638;19.026;2023-05-22T07:15:44;100028.13;;;19.39;61.15
42761;BME280;31672;47.638;19.026;2023-05-22T07:20:48;100033.84;;;19.61;59.83
42761;BME280;31672;47.638;19.026;2023-05-22T07:25:51;100034.09;;;19.83;57.72
42761;BME280;31672;47.638;19.026;2023-05-22T07:30:54;100042.91;;;20.14;54.92
42761;BME280;31672;47.638;19.026;2023-05-22T07:35:57;100036.81;;;20.42;53.46
42761;BME280;31672;47.638;19.026;2023-05-22T07:41:00;100033.88;;;20.67;50.90
42761;BME280;31672;47.638;19.026;2023-05-22T07:46:06;100023.03;;;20.90;47.21
42761;BME280;31672;47.638;19.026;2023-05-22T07:51:11;100028.59;;;21.12;46.28
42761;BME280;31672;47.638;19.026;2023-05-22T07:56:15;100030.50;;;21.28;46.38
42761;BME280;31672;47.638;19.026;2023-05-22T08:01:19;100031.16;;;21.47;46.58
42761;BME280;31672;47.638;19.026;2023-05-22T08:06:22;100021.63;;;21.45;46.70
42761;BME280;31672;47.638;19.026;2023-05-22T08:11:25;100024.28;;;21.28;47.49
42761;BME280;31672;47.638;19.026;2023-05-22T08:16:28;100021.38;;;21.29;47.82
42761;BME280;31672;47.638;19.026;2023-05-22T08:21:38;100022.47;;;21.45;47.17
42761;BME280;31672;47.638;19.026;2023-05-22T08:26:42;100021.00;;;21.54;46.05
42761;BME280;31672;47.638;19.026;2023-05-22T08:31:45;100017.41;;;21.66;45.77
42761;BME280;31672;47.638;19.026;2023-05-22T08:36:48;100031.09;;;21.76;45.73
42761;BME280;31672;47.638;19.026;2023-05-22T08:41:52;100029.03;;;21.83;45.77
42761;BME280;31672;47.638;19.026;2023-05-22T08:46:57;100021.09;;;21.76;46.14
42761;BME280;31672;47.638;19.026;2023-05-22T08:52:13;100022.59;;;21.84;46.10
42761;BME280;31672;47.638;19.026;2023-05-22T08:57:19;100019.94;;;21.89;45.22
42761;BME280;31672;47.638;19.026;2023-05-22T09:02:23;100009.94;;;22.06;45.58
42761;BME280;31672;47.638;19.026;2023-05-22T09:07:27;100017.75;;;22.20;45.98
42761;BME280;31672;47.638;19.026;2023-05-22T09:12:32;100016.41;;;22.39;45.16
42761;BME280;31672;47.638;19.026;2023-05-22T09:17:41;100001.81;;;22.62;44.26
42761;BME280;31672;47.638;19.026;2023-05-22T09:22:46;100000.69;;;22.85;44.83
42761;BME280;31672;47.638;19.026;2023-05-22T09:27:49;99997.88;;;22.96;45.17
42761;BME280;31672;47.638;19.026;2023-05-22T09:32:54;99993.72;;;23.11;44.18
42761;BME280;31672;47.638;19.026;2023-05-22T09:37:58;99996.91;;;23.30;44.04
42761;BME280;31672;47.638;19.026;2023-05-22T09:43:06;99990.38;;;23.31;43.61
42761;BME280;31672;47.638;19.026;2023-05-22T09:48:10;99982.41;;;23.46;42.51
42761;BME280;31672;47.638;19.026;2023-05-22T09:53:16;99965.28;;;23.72;43.75
42761;BME280;31672;47.638;19.026;2023-05-22T09:58:23;99968.50;;;24.07;42.41
42761;BME280;31672;47.638;19.026;2023-05-22T10:03:29;99965.06;;;24.21;41.19
42761;BME280;31672;47.638;19.026;2023-05-22T10:08:42;99960.28;;;24.39;41.96
42761;BME280;31672;47.638;19.026;2023-05-22T10:13:46;99960.59;;;24.52;39.02
42761;BME280;31672;47.638;19.026;2023-05-22T10:18:51;99962.03;;;24.70;40.51
42761;BME280;31672;47.638;19.026;2023-05-22T10:23:56;99949.84;;;24.78;39.21
42761;BME280;31672;47.638;19.026;2023-05-22T10:29:11;99947.44;;;24.92;40.21
42761;BME280;31672;47.638;19.026;2023-05-22T10:34:29;99945.28;;;25.04;41.20
42761;BME280;31672;47.638;19.026;2023-05-22T10:39:46;99935.53;;;25.23;40.22
42761;BME280;31672;47.638;19.026;2023-05-22T10:44:55;99939.38;;;25.38;40.84
42761;BME280;31672;47.638;19.026;2023-05-22T10:50:09;99928.50;;;25.38;39.12
42761;BME280;31672;47.638;19.026;2023-05-22T10:55:13;99928.22;;;25.49;38.00
42761;BME280;31672;47.638;19.026;2023-05-22T11:00:17;99921.94;;;25.49;39.50
42761;BME280;31672;47.638;19.026;2023-05-22T11:10:53;99905.63;;;25.74;39.06
42761;BME280;31672;47.638;19.026;2023-05-22T11:15:57;99905.63;;;25.74;38.92
42761;BME280;31672;47.638;19.026;2023-05-22T11:21:01;99890.66;;;25.77;38.54
42761;BME280;31672;47.638;19.026;2023-05-22T11:26:19;99884.38;;;25.92;39.19
42761;BME280;31672;47.638;19.026;2023-05-22T11:31:29;99884.31;;;26.02;38.42
42761;BME280;31672;47.638;19.026;2023-05-22T11:36:32;99879.41;;;26.09;38.87
42761;BME280;31672;47.638;19.026;2023-05-22T11:41:36;99872.78;;;26.25;39.54
42761;BME280;31672;47.638;19.026;2023-05-22T11:46:39;99874.63;;;26.40;38.82
42761;BME280;31672;47.638;19.026;2023-05-22T11:51:43;99867.81;;;26.37;37.58
42761;BME280;31672;47.638;19.026;2023-05-22T11:56:47;99864.56;;;26.46;39.48
42761;BME280;31672;47.638;19.026;2023-05-22T12:01:51;99867.66;;;26.73;39.44
42761;BME280;31672;47.638;19.026;2023-05-22T12:06:54;99856.06;;;26.91;38.75
42761;BME280;31672;47.638;19.026;2023-05-22T12:11:58;99851.66;;;27.06;38.57
42761;BME280;31672;47.638;19.026;2023-05-22T12:17:01;99854.84;;;27.13;37.39
42761;BME280;31672;47.638;19.026;2023-05-22T12:22:08;99853.22;;;27.12;37.64
42761;BME280;31672;47.638;19.026;2023-05-22T12:27:13;99840.81;;;26.90;37.49
42761;BME280;31672;47.638;19.026;2023-05-22T12:32:20;99839.94;;;27.00;37.46
42761;BME280;31672;47.638;19.026;2023-05-22T12:37:24;99838.34;;;26.94;36.91
42761;BME280;31672;47.638;19.026;2023-05-22T12:42:28;99829.50;;;27.12;38.18
42761;BME280;31672;47.638;19.026;2023-05-22T12:47:31;99815.84;;;27.41;37.60
42761;BME280;31672;47.638;19.026;2023-05-22T12:52:34;99806.81;;;27.70;37.65
42761;BME280;31672;47.638;19.026;2023-05-22T12:57:38;99798.34;;;27.95;37.29
42761;BME280;31672;47.638;19.026;2023-05-22T13:02:41;99785.72;;;28.18;36.54
42761;BME280;31672;47.638;19.026;2023-05-22T13:07:44;99795.63;;;27.95;36.80
42761;BME280;31672;47.638;19.026;2023-05-22T13:12:47;99790.44;;;27.94;37.25
42761;BME280;31672;47.638;19.026;2023-05-22T13:17:53;99785.72;;;27.99;36.04
42761;BME280;31672;47.638;19.026;2023-05-22T13:22:56;99794.88;;;28.09;36.20
42761;BME280;31672;47.638;19.026;2023-05-22T13:27:59;99786.16;;;28.07;35.99
42761;BME280;31672;47.638;19.026;2023-05-22T13:33:03;99778.31;;;28.00;37.38
42761;BME280;31672;47.638;19.026;2023-05-22T13:38:06;99782.84;;;27.91;35.62
42761;BME280;31672;47.638;19.026;2023-05-22T13:43:09;99789.59;;;27.45;36.98
42761;BME280;31672;47.638;19.026;2023-05-22T13:48:12;99777.91;;;27.16;38.06
42761;BME280;31672;47.638;19.026;2023-05-22T13:53:15;99773.50;;;27.20;38.90
42761;BME280;31672;47.638;19.026;2023-05-22T13:58:18;99770.09;;;27.33;38.76
42761;BME280;31672;47.638;19.026;2023-05-22T14:03:21;99769.06;;;27.53;39.92
42761;BME280;31672;47.638;19.026;2023-05-22T14:08:25;99764.28;;;27.64;38.08
42761;BME280;31672;47.638;19.026;2023-05-22T14:13:28;99759.47;;;27.56;38.19
42761;BME280;31672;47.638;19.026;2023-05-22T14:18:31;99751.34;;;27.74;37.79
42761;BME280;31672;47.638;19.026;2023-05-22T14:23:34;99751.50;;;28.07;38.54
42761;BME280;31672;47.638;19.026;2023-05-22T14:28:37;99747.91;;;28.07;37.02
42761;BME280;31672;47.638;19.026;2023-05-22T14:33:40;99751.75;;;28.06;37.79
42761;BME280;31672;47.638;19.026;2023-05-22T14:38:44;99745.19;;;28.07;36.93
42761;BME280;31672;47.638;19.026;2023-05-22T14:43:47;99741.53;;;28.35;37.83
42761;BME280;31672;47.638;19.026;2023-05-22T14:48:50;99740.56;;;28.26;37.65
42761;BME280;31672;47.638;19.026;2023-05-22T14:53:53;99741.22;;;28.37;36.71
42761;BME280;31672;47.638;19.026;2023-05-22T14:58:56;99745.84;;;28.74;37.13
42761;BME280;31672;47.638;19.026;2023-05-22T15:04:03;99737.97;;;29.19;36.33
42761;BME280;31672;47.638;19.026;2023-05-22T15:09:06;99731.06;;;29.49;34.89
42761;BME280;31672;47.638;19.026;2023-05-22T15:14:10;99727.53;;;29.48;35.44
42761;BME280;31672;47.638;19.026;2023-05-22T15:19:14;99723.56;;;29.13;35.38
42761;BME280;31672;47.638;19.026;2023-05-22T15:24:17;99722.25;;;29.11;35.42
42761;BME280;31672;47.638;19.026;2023-05-22T15:29:20;99722.03;;;28.93;35.24
42761;BME280;31672;47.638;19.026;2023-05-22T15:34:23;99720.63;;;28.44;36.32
42761;BME280;31672;47.638;19.026;2023-05-22T15:39:26;99721.59;;;27.97;36.88
42761;BME280;31672;47.638;19.026;2023-05-22T15:44:29;99720.47;;;27.55;38.11
42761;BME280;31672;47.638;19.026;2023-05-22T15:49:33;99715.31;;;27.54;37.89
42761;BME280;31672;47.638;19.026;2023-05-22T15:54:36;99711.91;;;27.86;37.88
42761;BME280;31672;47.638;19.026;2023-05-22T15:59:39;99723.56;;;27.91;38.35
42761;BME280;31672;47.638;19.026;2023-05-22T16:04:42;99729.22;;;27.76;38.77
42761;BME280;31672;47.638;19.026;2023-05-22T16:09:45;99723.59;;;27.43;39.25
42761;BME280;31672;47.638;19.026;2023-05-22T16:14:48;99729.91;;;27.15;40.84
42761;BME280;31672;47.638;19.026;2023-05-22T16:19:52;99727.72;;;26.88;41.18
42761;BME280;31672;47.638;19.026;2023-05-22T16:24:55;99741.06;;;26.55;41.74
42761;BME280;31672;47.638;19.026;2023-05-22T16:29:58;99734.84;;;26.00;41.64
42761;BME280;31672;47.638;19.026;2023-05-22T16:35:04;99747.50;;;25.66;42.44
42761;BME280;31672;47.638;19.026;2023-05-22T16:40:08;99737.28;;;25.37;43.11
42761;BME280;31672;47.638;19.026;2023-05-22T16:45:11;99739.22;;;25.16;44.55
42761;BME280;31672;47.638;19.026;2023-05-22T16:50:15;99746.31;;;24.97;45.00
42761;BME280;31672;47.638;19.026;2023-05-22T16:55:18;99757.16;;;24.76;45.90
42761;BME280;31672;47.638;19.026;2023-05-22T17:00:21;99765.88;;;24.63;47.79
42761;BME280;31672;47.638;19.026;2023-05-22T17:05:25;99768.00;;;24.41;48.36
42761;BME280;31672;47.638;19.026;2023-05-22T17:10:28;99774.47;;;24.19;49.18
42761;BME280;31672;47.638;19.026;2023-05-22T17:15:31;99775.72;;;23.91;50.04
42761;BME280;31672;47.638;19.026;2023-05-22T17:20:34;99780.81;;;23.72;50.45
42761;BME280;31672;47.638;19.026;2023-05-22T17:25:37;99783.13;;;23.54;50.49
42761;BME280;31672;47.638;19.026;2023-05-22T17:30:41;99771.84;;;23.24;50.33
42761;BME280;31672;47.638;19.026;2023-05-22T17:35:46;99782.88;;;23.13;51.08
42761;BME280;31672;47.638;19.026;2023-05-22T17:40:49;99777.31;;;22.92;51.43
42761;BME280;31672;47.638;19.026;2023-05-22T17:45:53;99777.69;;;22.74;52.73
42761;BME280;31672;47.638;19.026;2023-05-22T17:50:56;99773.69;;;22.55;53.57
42761;BME280;31672;47.638;19.026;2023-05-22T17:56:01;99781.28;;;22.26;54.72
42761;BME280;31672;47.638;19.026;2023-05-22T18:01:04;99780.47;;;22.03;55.96
42761;BME280;31672;47.638;19.026;2023-05-22T18:06:07;99785.06;;;21.81;56.12
42761;BME280;31672;47.638;19.026;2023-05-22T18:11:10;99791.31;;;21.64;56.87
42761;BME280;31672;47.638;19.026;2023-05-22T18:16:16;99800.06;;;21.50;57.13
42761;BME280;31672;47.638;19.026;2023-05-22T18:21:22;99800.72;;;21.40;58.06
42761;BME280;31672;47.638;19.026;2023-05-22T18:26:26;99802.22;;;21.31;59.38
42761;BME280;31672;47.638;19.026;2023-05-22T18:31:29;99804.66;;;21.16;59.62
42761;BME280;31672;47.638;19.026;2023-05-22T18:36:32;99804.66;;;20.99;59.55
42761;BME280;31672;47.638;19.026;2023-05-22T18:41:36;99811.09;;;20.81;60.05
42761;BME280;31672;47.638;19.026;2023-05-22T18:46:39;99808.41;;;20.64;60.85
42761;BME280;31672;47.638;19.026;2023-05-22T18:51:42;99820.66;;;20.55;61.59
42761;BME280;31672;47.638;19.026;2023-05-22T18:56:46;99824.69;;;20.41;61.73
42761;BME280;31672;47.638;19.026;2023-05-22T19:01:49;99824.97;;;20.27;63.07
42761;BME280;31672;47.638;19.026;2023-05-22T19:06:52;99833.94;;;20.16;63.56
42761;BME280;31672;47.638;19.026;2023-05-22T19:11:55;99827.16;;;20.02;65.12
42761;BME280;31672;47.638;19.026;2023-05-22T19:16:58;99826.03;;;19.86;66.29
42761;BME280;31672;47.638;19.026;2023-05-22T19:22:02;99841.06;;;19.70;66.59
42761;BME280;31672;47.638;19.026;2023-05-22T19:27:05;99831.75;;;19.43;66.69
42761;BME280;31672;47.638;19.026;2023-05-22T19:32:08;99839.00;;;19.19;66.70
42761;BME280;31672;47.638;19.026;2023-05-22T19:37:11;99846.63;;;19.10;67.02
42761;BME280;31672;47.638;19.026;2023-05-22T19:42:14;99861.03;;;19.04;67.70
42761;BME280;31672;47.638;19.026;2023-05-22T19:47:17;99867.91;;;19.00;68.88
42761;BME280;31672;47.638;19.026;2023-05-22T19:52:20;99864.94;;;18.78;69.54
42761;BME280;31672;47.638;19.026;2023-05-22T19:57:24;99865.19;;;18.58;70.47
42761;BME280;31672;47.638;19.026;2023-05-22T20:02:28;99873.66;;;18.43;71.78
42761;BME280;31672;47.638;19.026;2023-05-22T20:07:32;99863.09;;;18.30;72.38
42761;BME280;31672;47.638;19.026;2023-05-22T20:12:36;99875.66;;;18.18;72.84
42761;BME280;31672;47.638;19.026;2023-05-22T20:17:40;99879.25;;;18.12;73.20
42761;BME280;31672;47.638;19.026;2023-05-22T20:22:44;99862.34;;;18.05;73.33
42761;BME280;31672;47.638;19.026;2023-05-22T20:27:47;99866.75;;;17.99;73.82
42761;BME280;31672;47.638;19.026;2023-05-22T20:32:50;99869.00;;;17.84;74.18
42761;BME280;31672;47.638;19.026;2023-05-22T20:37:53;99863.47;;;17.79;74.38
42761;BME280;31672;47.638;19.026;2023-05-22T20:42:57;99856.44;;;17.78;74.86
42761;BME280;31672;47.638;19.026;2023-05-22T20:48:00;99855.03;;;17.75;75.06
42761;BME280;31672;47.638;19.026;2023-05-22T20:53:04;99868.72;;;17.67;75.77
42761;BME280;31672;47.638;19.026;2023-05-22T20:58:08;99865.94;;;17.55;75.85
42761;BME280;31672;47.638;19.026;2023-05-22T21:03:11;99858.84;;;17.43;75.94
42761;BME280;31672;47.638;19.026;2023-05-22T21:08:14;99855.38;;;17.35;76.33
42761;BME280;31672;47.638;19.026;2023-05-22T21:13:18;99858.50;;;17.32;77.12
42761;BME280;31672;47.638;19.026;2023-05-22T21:18:21;99865.78;;;17.25;76.96
42761;BME280;31672;47.638;19.026;2023-05-22T21:23:25;99856.22;;;17.11;77.07
42761;BME280;31672;47.638;19.026;2023-05-22T21:28:28;99845.72;;;17.03;76.81
42761;BME280;31672;47.638;19.026;2023-05-22T21:33:31;99852.38;;;17.00;76.63
42761;BME280;31672;47.638;19.026;2023-05-22T21:38:35;99847.59;;;17.02;77.08
42761;BME280;31672;47.638;19.026;2023-05-22T21:43:38;99861.00;;;17.02;76.39
42761;BME280;31672;47.638;19.026;2023-05-22T21:48:41;99869.88;;;17.03;76.39
42761;BME280;31672;47.638;19.026;2023-05-22T21:53:45;99853.19;;;17.01;76.10
42761;BME280;31672;47.638;19.026;2023-05-22T21:58:48;99848.28;;;16.98;76.50
42761;BME280;31672;47.638;19.026;2023-05-22T22:03:51;99847.44;;;16.97;76.77
42761;BME280;31672;47.638;19.026;2023-05-22T22:08:55;99859.00;;;16.98;76.92
42761;BME280;31672;47.638;19.026;2023-05-22T22:14:00;99852.47;;;16.87;77.07
42761;BME280;31672;47.638;19.026;2023-05-22T22:19:06;99859.06;;;16.84;77.65
42761;BME280;31672;47.638;19.026;2023-05-22T22:24:09;99854.56;;;16.78;77.93
42761;BME280;31672;47.638;19.026;2023-05-22T22:29:14;99850.50;;;16.69;77.93
42761;BME280;31672;47.638;19.026;2023-05-22T22:34:17;99852.81;;;16.59;78.23
42761;BME280;31672;47.638;19.026;2023-05-22T22:39:20;99864.03;;;16.43;79.20
42761;BME280;31672;47.638;19.026;2023-05-22T22:44:23;99860.38;;;16.30;80.46
42761;BME280;31672;47.638;19.026;2023-05-22T22:49:26;99862.91;;;16.19;81.22
42761;BME280;31672;47.638;19.026;2023-05-22T22:54:30;99856.38;;;16.08;81.27
42761;BME280;31672;47.638;19.026;2023-05-22T22:59:33;99857.00;;;16.03;81.62
42761;BME280;31672;47.638;19.026;2023-05-22T23:04:39;99851.03;;;15.95;81.96
42761;BME280;31672;47.638;19.026;2023-05-22T23:09:42;99845.72;;;15.82;81.76
42761;BME280;31672;47.638;19.026;2023-05-22T23:14:45;99844.94;;;15.68;82.57
42761;BME280;31672;47.638;19.026;2023-05-22T23:19:48;99845.56;;;15.63;82.91
42761;BME280;31672;47.638;19.026;2023-05-22T23:24:51;99845.31;;;15.58;83.55
42761;BME280;31672;47.638;19.026;2023-05-22T23:29:54;99843.09;;;15.48;83.68
42761;BME280;31672;47.638;19.026;2023-05-22T23:34:57;99845.16;;;15.40;84.24
42761;BME280;31672;47.638;19.026;2023-05-22T23:40:00;99850.72;;;15.32;84.78
42761;BME280;31672;47.638;19.026;2023-05-22T23:45:03;99848.47;;;15.22;85.03
42761;BME280;31672;47.638;19.026;2023-05-22T23:50:07;99853.00;;;15.21;85.35
42761;BME280;31672;47.638;19.026;2023-05-22T23:55:10;99852.16;;;15.21;85.11
